createdAt,value
2022-08-23T00:08:22.518Z,969.43
2022-08-23T00:18:22.571Z,969.27
2022-08-23T00:28:22.739Z,969.24
2022-08-23T00:38:33.390Z,969.16
2022-08-23T00:48:24.090Z,969.16
2022-08-23T00:58:23.266Z,969.01
2022-08-23T01:08:23.418Z,969.04
2022-08-23T01:18:23.572Z,969.06
2022-08-23T01:28:23.728Z,969.10
2022-08-23T01:38:23.900Z,969.20
2022-08-23T01:48:24.079Z,969.14
2022-08-23T01:58:24.232Z,969.29
2022-08-23T02:08:24.393Z,969.21
2022-08-23T02:18:24.548Z,969.15
2022-08-23T02:28:24.706Z,969.21
2022-08-23T02:38:24.884Z,969.22
2022-08-23T02:48:25.061Z,969.12
2022-08-23T02:58:25.226Z,969.30
2022-08-23T03:08:25.382Z,969.35
2022-08-23T03:18:25.602Z,969.38
2022-08-23T03:28:25.662Z,969.44
2022-08-23T03:38:25.832Z,969.47
2022-08-23T03:48:26.011Z,969.46
2022-08-23T03:58:26.177Z,969.44
2022-08-23T04:08:33.540Z,969.60
2022-08-23T04:18:27.504Z,969.61
2022-08-23T04:28:26.674Z,969.80
2022-08-23T04:38:26.845Z,970.01
2022-08-23T04:48:27.187Z,970.02
2022-08-23T04:58:27.244Z,970.01
2022-08-23T05:08:27.416Z,970.17
2022-08-23T05:18:27.618Z,970.23
2022-08-23T05:28:27.766Z,970.32
2022-08-23T05:38:27.960Z,970.37
2022-08-23T05:48:28.140Z,970.44
2022-08-23T05:58:28.295Z,970.57
2022-08-23T06:08:28.491Z,970.56
2022-08-23T06:18:28.665Z,970.53
2022-08-23T06:28:28.852Z,970.58
2022-08-23T06:38:29.321Z,970.59
2022-08-23T06:48:29.157Z,970.69
2022-08-23T06:58:29.574Z,970.80
2022-08-23T07:08:29.545Z,970.82
2022-08-23T07:18:29.748Z,970.79
2022-08-23T07:28:29.925Z,970.77
2022-08-23T07:38:30.745Z,970.82
2022-08-23T07:48:52.385Z,970.85
2022-08-23T07:58:31.411Z,970.92
2022-08-23T08:08:30.591Z,971.04
2022-08-23T08:18:30.797Z,971.13
2022-08-23T08:28:30.988Z,971.04
2022-08-23T08:38:31.178Z,971.01
2022-08-23T08:48:31.349Z,971.10
2022-08-23T08:58:31.517Z,971.21
2022-08-23T09:08:31.686Z,971.22
2022-08-23T09:18:31.871Z,971.14
2022-08-23T09:28:32.037Z,971.27
2022-08-23T09:38:32.219Z,971.23
2022-08-23T09:48:32.401Z,971.10
2022-08-23T09:58:32.595Z,971.06
2022-08-23T10:08:32.766Z,970.99
2022-08-23T10:18:32.959Z,971.08
2022-08-23T10:28:37.265Z,971.05
2022-08-23T10:38:34.325Z,970.99
2022-08-23T10:48:33.490Z,970.93
2022-08-23T10:58:33.660Z,970.74
2022-08-23T11:08:33.822Z,970.70
2022-08-23T11:18:34.030Z,970.57
2022-08-23T11:28:34.199Z,970.46
2022-08-23T11:38:34.371Z,970.41
2022-08-23T11:48:34.531Z,970.49
2022-08-23T11:58:34.841Z,970.47
2022-08-23T12:08:34.904Z,970.45
2022-08-23T12:18:35.071Z,970.39
2022-08-23T12:28:35.220Z,970.33
2022-08-23T12:38:35.399Z,970.30
2022-08-23T12:48:35.621Z,970.26
2022-08-23T12:58:35.795Z,970.25
2022-08-23T13:08:35.958Z,970.16
2022-08-23T13:18:36.145Z,970.17
2022-08-23T13:28:36.328Z,970.09
2022-08-23T13:38:36.513Z,970.11
2022-08-23T13:48:36.697Z,970.08
2022-08-23T13:58:36.949Z,970.10
2022-08-23T14:08:37.013Z,970.07
2022-08-23T14:18:37.281Z,970.02
2022-08-23T14:28:39.394Z,969.85
2022-08-23T14:38:38.559Z,969.88
2022-08-23T14:48:37.733Z,969.91
2022-08-23T14:58:37.926Z,969.96
2022-08-23T15:08:38.284Z,969.95
2022-08-23T15:18:38.240Z,969.89
2022-08-23T15:28:38.430Z,969.90
2022-08-23T15:38:38.618Z,969.80
2022-08-23T15:48:38.800Z,969.80
2022-08-23T15:58:39.247Z,969.86
2022-08-23T16:08:39.339Z,969.74
2022-08-23T16:18:39.618Z,969.71
2022-08-23T16:28:39.463Z,969.65
2022-08-23T16:38:39.863Z,969.68
2022-08-23T16:48:39.831Z,969.65
2022-08-23T16:58:40.117Z,969.79
2022-08-23T17:08:40.185Z,969.72
2022-08-23T17:18:40.675Z,969.83
2022-08-23T17:28:40.647Z,969.92
2022-08-23T17:38:41.224Z,969.98
2022-08-23T17:48:40.837Z,970.10
2022-08-23T17:58:41.167Z,970.09
2022-08-23T18:08:41.210Z,970.25
2022-08-23T18:18:41.339Z,970.43
2022-08-23T18:28:41.503Z,970.56
2022-08-23T18:38:42.081Z,970.53
2022-08-23T18:48:41.800Z,970.56
2022-08-23T18:58:42.977Z,970.78
2022-08-23T19:08:42.142Z,970.97
2022-08-23T19:18:42.302Z,971.02
2022-08-23T19:28:42.463Z,971.13
2022-08-23T19:38:42.681Z,971.16
2022-08-23T19:48:42.750Z,971.26
2022-08-23T19:58:42.929Z,971.40
2022-08-23T20:08:43.092Z,971.47
2022-08-23T20:18:43.253Z,971.54
2022-08-23T20:28:50.454Z,971.71
2022-08-23T20:38:44.589Z,971.67
2022-08-23T20:48:43.755Z,971.75
2022-08-23T20:58:43.904Z,971.79
2022-08-23T21:08:44.067Z,971.84
2022-08-23T21:18:44.220Z,971.81
2022-08-23T21:28:44.381Z,971.77
2022-08-23T21:38:45.397Z,971.79
2022-08-23T21:48:44.674Z,971.85
2022-08-23T21:58:44.860Z,971.69
2022-08-23T22:08:45.049Z,971.71
2022-08-23T22:18:45.108Z,971.64
2022-08-23T22:28:45.407Z,971.59
2022-08-23T22:38:45.474Z,971.55
2022-08-23T22:48:45.649Z,971.58
2022-08-23T22:58:45.805Z,971.55
2022-08-23T23:08:45.915Z,971.52
2022-08-23T23:18:46.073Z,971.46
2022-08-23T23:28:46.232Z,971.49
2022-08-23T23:38:46.403Z,971.51
2022-08-23T23:48:46.585Z,971.50
2022-08-23T23:58:46.878Z,971.46
